Porsa — LG5915 — position and weather

sailwx.info

Track history (hours):
 
Tides and Currents Weather Stations Pressure Air Temp Water Temp Dewpoint Dewpoint Depression Visibility Wind Speed Wind Dir Waves Ship Positions

Porsa

Last reported at 2017-Oct-19 14:55 UTC. Time now 2017-Oct-20 12:46 UTC.
Position N 70°40' E 023°40'.

Length 12 m.

Type: Cargo ship. MMSI: 257079900.

Date/timePositionNaut miles runAvg speedWind from/ knotsBaromVisibWave heightAir tempDewpointWater temp
2017-Oct-19 14:55N 70°40' E 023°40'0 0.1
2017-Oct-19 14:30N 70°40' E 023°40'0 0.0
2017-Oct-19 13:58N 70°40' E 023°40'0 0.0
2017-Oct-19 13:31N 70°40' E 023°40'0 0.0
2017-Oct-19 13:00N 70°40' E 023°40'0 0.0
2017-Oct-19 12:30N 70°40' E 023°40'0 0.0
2017-Oct-19 12:00N 70°40' E 023°40'0 0.0
2017-Oct-19 11:30N 70°40' E 023°40'0 0.0
2017-Oct-19 11:00N 70°40' E 023°40'1 2.0
2017-Oct-19 10:30N 70°39' E 023°38'4 8.5
2017-Oct-19 10:00N 70°35' E 023°36'4 8.0
2017-Oct-19 09:30N 70°31' E 023°37'4 7.7
2017-Oct-19 09:01N 70°28' E 023°39'4 7.7
2017-Oct-19 08:30N 70°24' E 023°35'2 4.6
2017-Oct-19 08:00N 70°22' E 023°31'3 5.4
2017-Oct-19 07:29N 70°21' E 023°24'0 0.0
2017-Oct-19 06:59N 70°21' E 023°24'0 0.3
2017-Oct-19 06:30N 70°20' E 023°23'0 0.2
2017-Oct-19 05:59N 70°21' E 023°23'0 0.2
2017-Oct-19 05:30N 70°21' E 023°23'0 0.0
2017-Oct-19 05:00N 70°21' E 023°23'0 0.0
2017-Oct-19 04:30N 70°21' E 023°23'0 0.0
2017-Oct-19 04:00N 70°21' E 023°23'0 0.0
2017-Oct-19 03:30N 70°21' E 023°23'0 0.0
2017-Oct-19 03:00N 70°21' E 023°23'0 0.0
2017-Oct-19 02:30N 70°21' E 023°23'0 0.0
2017-Oct-19 02:00N 70°21' E 023°23'0 0.0
2017-Oct-19 01:30N 70°21' E 023°23'0 0.0
2017-Oct-19 01:00N 70°21' E 023°23'0 0.0
2017-Oct-19 00:27N 70°21' E 023°23'0 0.0
2017-Oct-19 00:00N 70°21' E 023°23'0 0.0
2017-Oct-18 23:30N 70°21' E 023°23'0 0.0
2017-Oct-18 23:00N 70°21' E 023°23'0 0.0
2017-Oct-18 22:30N 70°21' E 023°23'0 0.0
2017-Oct-18 22:00N 70°21' E 023°23'0 0.0
2017-Oct-18 21:30N 70°21' E 023°23'0 0.0
2017-Oct-18 21:00N 70°21' E 023°23'0 0.0
2017-Oct-18 20:30N 70°21' E 023°23'0 0.0
2017-Oct-18 20:00N 70°21' E 023°23'0 0.0
2017-Oct-18 19:30N 70°21' E 023°23'0 0.0
2017-Oct-18 19:00N 70°21' E 023°23'0 0.0
2017-Oct-18 18:30N 70°21' E 023°23'0 0.0
2017-Oct-18 18:00N 70°21' E 023°23'0 0.0
2017-Oct-18 17:30N 70°21' E 023°23'0 0.0
2017-Oct-18 17:00N 70°21' E 023°23'0 0.0
2017-Oct-18 16:30N 70°21' E 023°23'0 0.0
2017-Oct-18 16:00N 70°21' E 023°23'0 0.0
2017-Oct-18 15:30N 70°21' E 023°23'0 0.0
2017-Oct-18 15:00N 70°21' E 023°23'0 0.0
2017-Oct-18 14:00N 70°21' E 023°23'0 0.0
2017-Oct-18 13:28N 70°21' E 023°23'0 0.2
2017-Oct-18 13:00N 70°21' E 023°23'0 0.2
2017-Oct-18 12:30N 70°20' E 023°23'0 0.4
2017-Oct-18 12:00N 70°21' E 023°24'0 0.2
2017-Oct-18 11:29N 70°21' E 023°23'0 0.0
2017-Oct-18 10:58N 70°21' E 023°23'3 6.7
2017-Oct-18 10:29N 70°23' E 023°31'3 4.9
2017-Oct-18 09:58N 70°24' E 023°37'1 2.7
2017-Oct-18 09:30N 70°23' E 023°34'4 8.3
2017-Oct-18 09:00N 70°21' E 023°25'0 0.8
2017-Oct-18 08:30N 70°21' E 023°24'0 0.2
2017-Oct-18 07:59N 70°21' E 023°24'0 0.0
2017-Oct-18 07:29N 70°21' E 023°24'0 0.2
2017-Oct-18 06:59N 70°21' E 023°24'0 0.0
2017-Oct-18 06:29N 70°21' E 023°24'0 0.2
2017-Oct-18 05:58N 70°20' E 023°23'0 0.0
2017-Oct-18 05:25N 70°20' E 023°23'0 0.4
2017-Oct-18 04:58N 70°21' E 023°23'0 0.0
2017-Oct-18 04:28N 70°21' E 023°23'0 0.0
2017-Oct-18 03:58N 70°21' E 023°23'0 0.0
2017-Oct-18 03:28N 70°21' E 023°23'0 0.0
2017-Oct-18 02:58N 70°21' E 023°23'0 0.0
2017-Oct-18 02:28N 70°21' E 023°23'0 0.0
2017-Oct-18 01:58N 70°21' E 023°23'0 0.0
2017-Oct-18 01:28N 70°21' E 023°23'0 0.0
2017-Oct-18 00:58N 70°21' E 023°23'0 0.0
2017-Oct-18 00:28N 70°21' E 023°23'0 0.0
2017-Oct-17 23:58N 70°21' E 023°23'0 0.0
2017-Oct-17 23:28N 70°21' E 023°23'0 0.0
2017-Oct-17 22:58N 70°21' E 023°23'0 0.0
2017-Oct-17 22:28N 70°21' E 023°23'0 0.0
2017-Oct-17 21:58N 70°21' E 023°23'0 0.0
2017-Oct-17 21:28N 70°21' E 023°23'0 0.0
2017-Oct-17 20:58N 70°21' E 023°23'0 0.0
2017-Oct-17 20:28N 70°21' E 023°23'0 0.0
2017-Oct-17 19:58N 70°21' E 023°23'0 0.0
2017-Oct-17 19:28N 70°21' E 023°23'0 0.0
2017-Oct-17 18:58N 70°21' E 023°23'0 0.0
2017-Oct-17 18:28N 70°21' E 023°23'0 0.0
2017-Oct-17 17:58N 70°21' E 023°23'0 0.0
2017-Oct-17 17:28N 70°21' E 023°23'0 0.0
2017-Oct-17 16:58N 70°21' E 023°23'0 0.0
2017-Oct-17 16:28N 70°21' E 023°23'0 0.0
2017-Oct-17 15:55N 70°21' E 023°23'0 0.0
2017-Oct-17 15:28N 70°21' E 023°23'0 0.0
2017-Oct-17 14:58N 70°21' E 023°23'2 4.0
2017-Oct-17 14:29N 70°22' E 023°28'1 1.4
2017-Oct-17 14:00N 70°22' E 023°29'3 4.4
2017-Oct-17 13:26N 70°21' E 023°23'0 0.0
2017-Oct-17 12:59N 70°21' E 023°23'0 0.4
2017-Oct-17 12:31N 70°20' E 023°23'0 0.3
2017-Oct-17 11:59N 70°20' E 023°24'0 0.3
2017-Oct-17 11:30N 70°21' E 023°24'0 0.3
2017-Oct-17 10:59N 70°21' E 023°23'0 0.2
2017-Oct-17 10:25N 70°21' E 023°24'0 0.0
2017-Oct-17 10:00N 70°21' E 023°24'0 0.2
2017-Oct-17 09:28N 70°21' E 023°23'0 0.0
2017-Oct-17 08:58N 70°21' E 023°23'0 0.3
2017-Oct-17 08:30N 70°20' E 023°24'0 0.1
2017-Oct-17 07:58N 70°20' E 023°24'0 0.3
2017-Oct-17 07:29N 70°21' E 023°23'0 0.2
2017-Oct-17 07:00N 70°21' E 023°23'0 0.1
2017-Oct-17 06:28N 70°20' E 023°23'0 0.2
2017-Oct-17 05:58N 70°20' E 023°23'0 0.0
2017-Oct-17 05:30N 70°21' E 023°23'0 0.3
2017-Oct-17 05:00N 70°21' E 023°24'0 0.0
2017-Oct-17 04:30N 70°21' E 023°24'0 0.0
2017-Oct-17 04:00N 70°21' E 023°24'0 0.0
2017-Oct-17 03:30N 70°21' E 023°24'0 0.0
2017-Oct-17 03:00N 70°21' E 023°24'0 0.0
2017-Oct-17 02:30N 70°21' E 023°24'0 0.0
2017-Oct-17 02:00N 70°21' E 023°24'0 0.0
2017-Oct-17 01:30N 70°21' E 023°24'0 0.0
2017-Oct-17 01:00N 70°21' E 023°24'0 0.0
2017-Oct-17 00:30N 70°21' E 023°24'0 0.0
2017-Oct-17 00:00N 70°21' E 023°24'0 0.0
2017-Oct-16 23:30N 70°21' E 023°24'0 0.0
2017-Oct-16 23:00N 70°21' E 023°24'0 0.0
2017-Oct-16 22:30N 70°21' E 023°24'0 0.0
2017-Oct-16 22:00N 70°21' E 023°24'0 0.0
2017-Oct-16 21:30N 70°21' E 023°24'0 0.0
2017-Oct-16 21:00N 70°21' E 023°24'0 0.0
2017-Oct-16 20:30N 70°21' E 023°24'0 0.0
2017-Oct-16 20:00N 70°21' E 023°24'0 0.0
2017-Oct-16 19:30N 70°21' E 023°24'0 0.0
2017-Oct-16 19:00N 70°21' E 023°24'0 0.0
2017-Oct-16 18:30N 70°21' E 023°24'0 0.0
2017-Oct-16 18:00N 70°21' E 023°24'0 0.0
2017-Oct-16 17:30N 70°21' E 023°24'0 0.0
2017-Oct-16 17:00N 70°21' E 023°24'0 0.0
2017-Oct-16 16:30N 70°21' E 023°24'3 6.8
2017-Oct-16 16:00N 70°22' E 023°32'0 1.0
2017-Oct-16 15:30N 70°23' E 023°33'4 7.2
2017-Oct-16 15:00N 70°21' E 023°24'0 0.5
2017-Oct-16 14:28N 70°21' E 023°23'0 0.0
2017-Oct-16 13:28N 70°21' E 023°23'0 0.0
2017-Oct-16 12:58N 70°21' E 023°23'0 0.0
2017-Oct-16 12:28N 70°21' E 023°23'0 0.0
2017-Oct-16 11:58N 70°21' E 023°23'0 0.0
2017-Oct-16 11:27N 70°21' E 023°23'0 0.0
2017-Oct-16 10:58N 70°21' E 023°23'0 0.0
2017-Oct-16 10:28N 70°21' E 023°23'0 0.0
2017-Oct-16 09:58N 70°21' E 023°23'0 0.0
2017-Oct-16 09:28N 70°21' E 023°23'0 0.0
2017-Oct-16 08:58N 70°21' E 023°23'0 0.0
2017-Oct-16 08:28N 70°21' E 023°23'0 0.0
2017-Oct-16 07:58N 70°21' E 023°23'0 0.0
2017-Oct-16 07:28N 70°21' E 023°23'0 0.0
2017-Oct-16 06:58N 70°21' E 023°23'0 0.0
2017-Oct-16 06:28N 70°21' E 023°23'0 0.0
2017-Oct-16 05:55N 70°21' E 023°23'0 0.0
2017-Oct-16 05:25N 70°21' E 023°23'0 0.0
2017-Oct-16 04:58N 70°21' E 023°23'0 0.0
2017-Oct-16 04:28N 70°21' E 023°23'0 0.0
2017-Oct-16 03:58N 70°21' E 023°23'0 0.0
2017-Oct-16 03:28N 70°21' E 023°23'0 0.0
2017-Oct-16 02:58N 70°21' E 023°23'0 0.0
2017-Oct-16 02:28N 70°21' E 023°23'0 0.0
2017-Oct-16 01:58N 70°21' E 023°23'0 0.0
2017-Oct-16 01:28N 70°21' E 023°23'0 0.0
2017-Oct-16 00:58N 70°21' E 023°23'0 0.0
2017-Oct-16 00:28N 70°21' E 023°23'0 0.0
2017-Oct-15 23:58N 70°21' E 023°23'0 0.0
2017-Oct-15 23:28N 70°21' E 023°23'0 0.0
2017-Oct-15 22:58N 70°21' E 023°23'0 0.0
2017-Oct-15 22:28N 70°21' E 023°23'0 0.0
2017-Oct-15 21:58N 70°21' E 023°23'0 0.0
2017-Oct-15 21:28N 70°21' E 023°23'0 0.0
2017-Oct-15 20:58N 70°21' E 023°23'0 0.0
2017-Oct-15 20:28N 70°21' E 023°23'0 0.0
2017-Oct-15 19:58N 70°21' E 023°23'0 0.0
2017-Oct-15 19:28N 70°21' E 023°23'0 0.0
2017-Oct-15 18:58N 70°21' E 023°23'0 0.0
2017-Oct-15 18:28N 70°21' E 023°23'0 0.0
2017-Oct-15 17:58N 70°21' E 023°23'0 0.0
2017-Oct-15 17:25N 70°21' E 023°23'0 0.0
2017-Oct-15 16:58N 70°21' E 023°23'0 0.0
2017-Oct-15 16:28N 70°21' E 023°23'0 0.0
2017-Oct-15 15:58N 70°21' E 023°23'0 0.0
2017-Oct-15 15:28N 70°21' E 023°23'0 0.2
2017-Oct-15 14:59N 70°21' E 023°23'0 0.2
2017-Oct-15 14:00N 70°20' E 023°24'0 0.2
2017-Oct-15 13:30N 70°21' E 023°23'0 0.2
2017-Oct-15 13:00N 70°21' E 023°23'0 0.0
2017-Oct-15 12:30N 70°21' E 023°23'0 0.0
2017-Oct-15 12:00N 70°21' E 023°23'0 0.0
2017-Oct-15 11:30N 70°21' E 023°23'0 0.0
2017-Oct-15 11:00N 70°21' E 023°23'0 0.0
2017-Oct-15 10:30N 70°21' E 023°23'0 0.0
2017-Oct-15 10:00N 70°21' E 023°23'0 0.0
2017-Oct-15 09:30N 70°21' E 023°23'0 0.0
2017-Oct-15 09:00N 70°21' E 023°23'0 0.0
2017-Oct-15 08:30N 70°21' E 023°23'0 0.0
2017-Oct-15 08:00N 70°21' E 023°23'0 0.0
2017-Oct-15 07:30N 70°21' E 023°23'0 0.0
2017-Oct-15 07:00N 70°21' E 023°23'0 0.0
2017-Oct-15 06:30N 70°21' E 023°23'0 0.0
2017-Oct-15 06:00N 70°21' E 023°23'0 0.0
2017-Oct-15 05:30N 70°21' E 023°23'0 0.0
2017-Oct-15 05:00N 70°21' E 023°23'0 0.0
2017-Oct-15 04:30N 70°21' E 023°23'0 0.0
2017-Oct-15 04:00N 70°21' E 023°23'0 0.0
2017-Oct-15 03:30N 70°21' E 023°23'0 0.0
2017-Oct-15 03:00N 70°21' E 023°23'0 0.0
2017-Oct-15 02:30N 70°21' E 023°23'0 0.0
2017-Oct-15 02:00N 70°21' E 023°23'0 0.0
2017-Oct-15 01:30N 70°21' E 023°23'0 0.0
2017-Oct-15 01:00N 70°21' E 023°23'0 0.0
2017-Oct-15 00:30N 70°21' E 023°23'0 0.0
2017-Oct-15 00:00N 70°21' E 023°23'0 0.0
2017-Oct-14 23:30N 70°21' E 023°23'0 0.0
2017-Oct-14 23:00N 70°21' E 023°23'0 0.0
2017-Oct-14 22:30N 70°21' E 023°23'0 0.0
2017-Oct-14 22:00N 70°21' E 023°23'0 0.0
2017-Oct-14 21:30N 70°21' E 023°23'0 0.0
2017-Oct-14 21:00N 70°21' E 023°23'0 0.0
2017-Oct-14 20:30N 70°21' E 023°23'0 0.0
2017-Oct-14 20:00N 70°21' E 023°23'0 0.0
2017-Oct-14 19:30N 70°21' E 023°23'0 0.0
2017-Oct-14 19:00N 70°21' E 023°23'0 0.0
2017-Oct-14 18:30N 70°21' E 023°23'0 0.0
2017-Oct-14 18:00N 70°21' E 023°23'0 0.0
2017-Oct-14 17:30N 70°21' E 023°23'0 0.0
2017-Oct-14 16:59N 70°21' E 023°23'0 0.0
2017-Oct-14 16:29N 70°21' E 023°23'0 0.0
2017-Oct-14 15:59N 70°21' E 023°23'0 0.0
2017-Oct-14 15:29N 70°21' E 023°23'0 0.0
2017-Oct-14 14:59N 70°21' E 023°23'0 0.0
2017-Oct-14 14:29N 70°21' E 023°23'0 0.0
2017-Oct-14 13:59N 70°21' E 023°23'0 0.0
2017-Oct-14 13:29N 70°21' E 023°23'0 0.0
2017-Oct-14 12:59N 70°21' E 023°23'0 0.0
2017-Oct-14 12:29N 70°21' E 023°23'0 0.0
2017-Oct-14 11:59N 70°21' E 023°23'0 0.0
2017-Oct-14 11:29N 70°21' E 023°23'0 0.0
2017-Oct-14 10:59N 70°21' E 023°23'0 0.0
2017-Oct-14 10:29N 70°21' E 023°23'0 0.0
2017-Oct-14 09:59N 70°21' E 023°23'0 0.0
2017-Oct-14 09:29N 70°21' E 023°23'0 0.0
2017-Oct-14 08:59N 70°21' E 023°23'0 0.0
2017-Oct-14 08:29N 70°21' E 023°23'0 0.0
2017-Oct-14 07:59N 70°21' E 023°23'0 0.0
2017-Oct-14 07:29N 70°21' E 023°23'0 0.0
2017-Oct-14 06:59N 70°21' E 023°23'0 0.0
2017-Oct-14 06:29N 70°21' E 023°23'0 0.0
2017-Oct-14 05:59N 70°21' E 023°23'0 0.0
2017-Oct-14 05:29N 70°21' E 023°23'0 0.0
2017-Oct-14 04:59N 70°21' E 023°23'0 0.0
2017-Oct-14 04:29N 70°21' E 023°23'0 0.0
2017-Oct-14 03:59N 70°21' E 023°23'0 0.0
2017-Oct-14 03:29N 70°21' E 023°23'0 0.0
2017-Oct-14 02:59N 70°21' E 023°23'0 0.0
2017-Oct-14 02:29N 70°21' E 023°23'0 0.0
2017-Oct-14 01:59N 70°21' E 023°23'0 0.0
2017-Oct-14 01:29N 70°21' E 023°23'0 0.0
2017-Oct-14 00:59N 70°21' E 023°23'0 0.0
2017-Oct-14 00:29N 70°21' E 023°23'0 0.0
2017-Oct-13 23:59N 70°21' E 023°23'0 0.0
2017-Oct-13 23:29N 70°21' E 023°23'0 0.0
2017-Oct-13 22:59N 70°21' E 023°23'0 0.0
2017-Oct-13 22:29N 70°21' E 023°23'0 0.0
2017-Oct-13 21:59N 70°21' E 023°23'0 0.0
2017-Oct-13 21:29N 70°21' E 023°23'0 0.0
2017-Oct-13 20:59N 70°21' E 023°23'0 0.0
2017-Oct-13 20:29N 70°21' E 023°23'0 0.0
2017-Oct-13 19:59N 70°21' E 023°23'0 0.0
2017-Oct-13 19:29N 70°21' E 023°23'0 0.0
2017-Oct-13 18:59N 70°21' E 023°23'0 0.0
2017-Oct-13 18:29N 70°21' E 023°23'0 0.0
2017-Oct-13 17:59N 70°21' E 023°23'0 0.0
2017-Oct-13 17:29N 70°21' E 023°23'0 0.0
2017-Oct-13 16:59N 70°21' E 023°23'0 0.0
2017-Oct-13 16:29N 70°21' E 023°23'0 0.0
2017-Oct-13 15:59N 70°21' E 023°23'0 0.0
2017-Oct-13 15:29N 70°21' E 023°23'0 0.0
2017-Oct-13 14:59N 70°21' E 023°23'0 0.0
2017-Oct-13 14:29N 70°21' E 023°23'0 0.0
2017-Oct-13 13:59N 70°21' E 023°23'0 0.0
2017-Oct-13 13:28N 70°21' E 023°23'0 0.0
2017-Oct-13 13:00N 70°21' E 023°24'0 0.0
2017-Oct-13 12:30N 70°21' E 023°24'0 0.0
2017-Oct-13 12:00N 70°21' E 023°24'0 0.0
2017-Oct-13 11:30N 70°21' E 023°24'0 0.0
2017-Oct-13 11:00N 70°21' E 023°24'0 0.0
2017-Oct-13 10:30N 70°21' E 023°24'0 0.0
2017-Oct-13 10:00N 70°21' E 023°24'0 0.0
2017-Oct-13 09:30N 70°21' E 023°24'0 0.0
2017-Oct-13 09:00N 70°21' E 023°24'0 0.0
2017-Oct-13 08:30N 70°21' E 023°24'0 0.0
2017-Oct-12 16:24N 70°21' E 023°23'0 0.0
2017-Oct-12 15:59N 70°21' E 023°23'0 0.0
2017-Oct-12 15:29N 70°21' E 023°23'0 0.0
2017-Oct-12 14:59N 70°21' E 023°23'0 0.0
2017-Oct-12 14:29N 70°21' E 023°23'0 0.0
2017-Oct-12 13:59N 70°21' E 023°23'0 0.0
2017-Oct-12 13:29N 70°21' E 023°23'0 0.0
2017-Oct-12 12:59N 70°21' E 023°23'0 0.0
2017-Oct-12 12:29N 70°21' E 023°23'0 0.0
2017-Oct-12 11:59N 70°21' E 023°23'0 0.0
2017-Oct-12 11:29N 70°21' E 023°23'0 0.0
2017-Oct-12 10:59N 70°21' E 023°23'0 0.0
2017-Oct-12 10:29N 70°21' E 023°23'0 0.0
2017-Oct-12 09:58N 70°21' E 023°23'0 0.2
2017-Oct-12 09:29N 70°21' E 023°23'0 0.1
2017-Oct-12 08:59N 70°21' E 023°23'0 0.2
2017-Oct-12 08:29N 70°20' E 023°24'0 0.2
2017-Oct-12 08:00N 70°20' E 023°24'0 0.3
2017-Oct-12 07:29N 70°21' E 023°24'0 0.0
2017-Oct-12 06:59N 70°21' E 023°24'0 0.0
2017-Oct-12 06:29N 70°21' E 023°24'0 0.0
2017-Oct-12 05:59N 70°21' E 023°24'0 0.0
2017-Oct-12 05:29N 70°21' E 023°24'0 0.0
2017-Oct-12 04:59N 70°21' E 023°24'0 0.0
2017-Oct-12 04:29N 70°21' E 023°24'0 0.0
2017-Oct-12 03:59N 70°21' E 023°24'0 0.0
2017-Oct-12 03:29N 70°21' E 023°24'0 0.0
2017-Oct-12 02:59N 70°21' E 023°24'0 0.0
2017-Oct-12 02:29N 70°21' E 023°24'0 0.0
2017-Oct-12 01:59N 70°21' E 023°24'0 0.0
2017-Oct-12 01:29N 70°21' E 023°24'0 0.0
2017-Oct-12 00:59N 70°21' E 023°24'0 0.0
2017-Oct-12 00:29N 70°21' E 023°24'0 0.0
2017-Oct-11 23:59N 70°21' E 023°24'0 0.0
2017-Oct-11 23:29N 70°21' E 023°24'0 0.0
2017-Oct-11 22:59N 70°21' E 023°24'0 0.0
2017-Oct-11 22:29N 70°21' E 023°24'0 0.0
2017-Oct-11 21:59N 70°21' E 023°24'0 0.0
2017-Oct-11 21:29N 70°21' E 023°24'0 0.0
2017-Oct-11 20:59N 70°21' E 023°24'0 0.0
2017-Oct-11 20:29N 70°21' E 023°24'0 0.0
2017-Oct-11 19:59N 70°21' E 023°24'0 0.0
2017-Oct-11 19:29N 70°21' E 023°24'0 0.0
2017-Oct-11 18:59N 70°21' E 023°24'0 0.0
2017-Oct-11 18:29N 70°21' E 023°24'0 0.0
2017-Oct-11 17:59N 70°21' E 023°24'0 0.0
2017-Oct-11 17:29N 70°21' E 023°24'0 0.0
2017-Oct-11 16:59N 70°21' E 023°24'0 0.0
2017-Oct-11 00:00N 70°21' E 023°23'0 0.0
2017-Oct-10 23:30N 70°21' E 023°23'0 0.0
2017-Oct-10 23:00N 70°21' E 023°23'0 0.0
2017-Oct-10 22:30N 70°21' E 023°23'0 0.0
2017-Oct-10 22:00N 70°21' E 023°23'0 0.0
2017-Oct-10 21:30N 70°21' E 023°23'0 0.0
2017-Oct-10 21:00N 70°21' E 023°23'0 0.0
2017-Oct-10 20:30N 70°21' E 023°23'0 0.0
2017-Oct-10 20:00N 70°21' E 023°23'0 0.0
2017-Oct-10 19:30N 70°21' E 023°23'0 0.0
2017-Oct-10 19:00N 70°21' E 023°23'0 0.0
2017-Oct-10 18:30N 70°21' E 023°23'0 0.0
2017-Oct-10 18:00N 70°21' E 023°23'0 0.0
2017-Oct-10 17:30N 70°21' E 023°23'0 0.0
2017-Oct-10 17:00N 70°21' E 023°23'0 0.0
2017-Oct-10 16:30N 70°21' E 023°23'0 0.0
2017-Oct-10 16:00N 70°21' E 023°23'0 0.0
2017-Oct-10 15:30N 70°21' E 023°23'0 0.0
2017-Oct-10 15:00N 70°21' E 023°23'0 0.0
2017-Oct-10 14:00N 70°21' E 023°23'0 0.0
2017-Oct-10 13:30N 70°21' E 023°23'0 0.0
2017-Oct-10 13:00N 70°21' E 023°23'0 0.0
2017-Oct-10 12:30N 70°21' E 023°23'0 0.3
2017-Oct-10 12:00N 70°20' E 023°24'1 1.5
2017-Oct-10 11:29N 70°21' E 023°26'2 5.0
2017-Oct-10 10:59N 70°23' E 023°29'0 0.0
2017-Oct-10 10:30N 70°23' E 023°29'0 0.0
2017-Oct-10 10:00N 70°23' E 023°29'0 0.0
2017-Oct-10 09:30N 70°23' E 023°29'0 0.0
2017-Oct-10 09:00N 70°23' E 023°29'1 1.1
2017-Oct-10 08:29N 70°23' E 023°29'3 5.1
2017-Oct-10 07:58N 70°21' E 023°23'0 0.0
2017-Oct-10 07:28N 70°21' E 023°23'0 0.0
2017-Oct-10 06:58N 70°21' E 023°23'0 0.0
2017-Oct-10 06:28N 70°21' E 023°23'0 0.0
2017-Oct-10 05:58N 70°21' E 023°23'0 0.0
2017-Oct-10 05:28N 70°21' E 023°23'0 0.0
2017-Oct-10 04:58N 70°21' E 023°23'0 0.0
2017-Oct-10 04:28N 70°21' E 023°23'0 0.0
2017-Oct-10 03:58N 70°21' E 023°23'0 0.0
2017-Oct-10 03:28N 70°21' E 023°23'0 0.0
2017-Oct-10 02:58N 70°21' E 023°23'0 0.0
2017-Oct-10 02:28N 70°21' E 023°23'0 0.0
2017-Oct-10 01:58N 70°21' E 023°23'0 0.0
2017-Oct-10 01:28N 70°21' E 023°23'0 0.0
2017-Oct-10 00:58N 70°21' E 023°23'0 0.0
2017-Oct-10 00:28N 70°21' E 023°23'0 0.0
2017-Oct-09 23:58N 70°21' E 023°23'0 0.0
2017-Oct-09 23:28N 70°21' E 023°23'0 0.0
2017-Oct-09 22:58N 70°21' E 023°23'0 0.0
2017-Oct-09 22:28N 70°21' E 023°23'0 0.0
2017-Oct-09 21:58N 70°21' E 023°23'0 0.0
2017-Oct-09 21:28N 70°21' E 023°23'0 0.0
2017-Oct-09 20:58N 70°21' E 023°23'0 0.0
2017-Oct-09 20:28N 70°21' E 023°23'0 0.0
2017-Oct-09 19:58N 70°21' E 023°23'0 0.0
2017-Oct-09 19:28N 70°21' E 023°23'0 0.0
2017-Oct-09 18:58N 70°21' E 023°23'0 0.0
2017-Oct-09 18:28N 70°21' E 023°23'0 0.0
2017-Oct-09 17:58N 70°21' E 023°23'2 4.5
2017-Oct-09 17:30N 70°22' E 023°29'2 4.5
2017-Oct-09 17:00N 70°23' E 023°35'0 0.0
2017-Oct-09 16:30N 70°23' E 023°35'4 7.8
2017-Oct-09 15:59N 70°21' E 023°25'0 0.7
2017-Oct-09 15:29N 70°21' E 023°23'0 0.0
2017-Oct-09 14:59N 70°21' E 023°23'  
Track history (hours):
 
Tides and Currents Weather Stations Pressure Air Temp Water Temp Dewpoint Dewpoint Depression Visibility Wind Speed Wind Dir Waves Ship Positions

Porsa

Last reported at 2017-Oct-19 14:55 UTC. Time now 2017-Oct-20 12:46 UTC.
Position N 70°40' E 023°40'.

Length 12 m.

Type: Cargo ship. MMSI: 257079900.

Date/timePositionNaut miles runAvg speedWind from/ knotsBaromVisibWave heightAir tempDewpointWater temp
2017-Oct-19 14:55N 70°40' E 023°40'0 0.1
2017-Oct-19 14:30N 70°40' E 023°40'0 0.0
2017-Oct-19 13:58N 70°40' E 023°40'0 0.0
2017-Oct-19 13:31N 70°40' E 023°40'0 0.0
2017-Oct-19 13:00N 70°40' E 023°40'0 0.0
2017-Oct-19 12:30N 70°40' E 023°40'0 0.0
2017-Oct-19 12:00N 70°40' E 023°40'0 0.0
2017-Oct-19 11:30N 70°40' E 023°40'0 0.0
2017-Oct-19 11:00N 70°40' E 023°40'1 2.0
2017-Oct-19 10:30N 70°39' E 023°38'4 8.5
2017-Oct-19 10:00N 70°35' E 023°36'4 8.0
2017-Oct-19 09:30N 70°31' E 023°37'4 7.7
2017-Oct-19 09:01N 70°28' E 023°39'4 7.7
2017-Oct-19 08:30N 70°24' E 023°35'2 4.6
2017-Oct-19 08:00N 70°22' E 023°31'3 5.4
2017-Oct-19 07:29N 70°21' E 023°24'0 0.0
2017-Oct-19 06:59N 70°21' E 023°24'0 0.3
2017-Oct-19 06:30N 70°20' E 023°23'0 0.2
2017-Oct-19 05:59N 70°21' E 023°23'0 0.2
2017-Oct-19 05:30N 70°21' E 023°23'0 0.0
2017-Oct-19 05:00N 70°21' E 023°23'0 0.0
2017-Oct-19 04:30N 70°21' E 023°23'0 0.0
2017-Oct-19 04:00N 70°21' E 023°23'0 0.0
2017-Oct-19 03:30N 70°21' E 023°23'0 0.0
2017-Oct-19 03:00N 70°21' E 023°23'0 0.0
2017-Oct-19 02:30N 70°21' E 023°23'0 0.0
2017-Oct-19 02:00N 70°21' E 023°23'0 0.0
2017-Oct-19 01:30N 70°21' E 023°23'0 0.0
2017-Oct-19 01:00N 70°21' E 023°23'0 0.0
2017-Oct-19 00:27N 70°21' E 023°23'0 0.0
2017-Oct-19 00:00N 70°21' E 023°23'0 0.0
2017-Oct-18 23:30N 70°21' E 023°23'0 0.0
2017-Oct-18 23:00N 70°21' E 023°23'0 0.0
2017-Oct-18 22:30N 70°21' E 023°23'0 0.0
2017-Oct-18 22:00N 70°21' E 023°23'0 0.0
2017-Oct-18 21:30N 70°21' E 023°23'0 0.0
2017-Oct-18 21:00N 70°21' E 023°23'0 0.0
2017-Oct-18 20:30N 70°21' E 023°23'0 0.0
2017-Oct-18 20:00N 70°21' E 023°23'0 0.0
2017-Oct-18 19:30N 70°21' E 023°23'0 0.0
2017-Oct-18 19:00N 70°21' E 023°23'0 0.0
2017-Oct-18 18:30N 70°21' E 023°23'0 0.0
2017-Oct-18 18:00N 70°21' E 023°23'0 0.0
2017-Oct-18 17:30N 70°21' E 023°23'0 0.0
2017-Oct-18 17:00N 70°21' E 023°23'0 0.0
2017-Oct-18 16:30N 70°21' E 023°23'0 0.0
2017-Oct-18 16:00N 70°21' E 023°23'0 0.0
2017-Oct-18 15:30N 70°21' E 023°23'0 0.0
2017-Oct-18 15:00N 70°21' E 023°23'0 0.0
2017-Oct-18 14:00N 70°21' E 023°23'0 0.0
2017-Oct-18 13:28N 70°21' E 023°23'0 0.2
2017-Oct-18 13:00N 70°21' E 023°23'0 0.2
2017-Oct-18 12:30N 70°20' E 023°23'0 0.4
2017-Oct-18 12:00N 70°21' E 023°24'0 0.2
2017-Oct-18 11:29N 70°21' E 023°23'0 0.0
2017-Oct-18 10:58N 70°21' E 023°23'3 6.7
2017-Oct-18 10:29N 70°23' E 023°31'3 4.9
2017-Oct-18 09:58N 70°24' E 023°37'1 2.7
2017-Oct-18 09:30N 70°23' E 023°34'4 8.3
2017-Oct-18 09:00N 70°21' E 023°25'0 0.8
2017-Oct-18 08:30N 70°21' E 023°24'0 0.2
2017-Oct-18 07:59N 70°21' E 023°24'0 0.0
2017-Oct-18 07:29N 70°21' E 023°24'0 0.2
2017-Oct-18 06:59N 70°21' E 023°24'0 0.0
2017-Oct-18 06:29N 70°21' E 023°24'0 0.2
2017-Oct-18 05:58N 70°20' E 023°23'0 0.0
2017-Oct-18 05:25N 70°20' E 023°23'0 0.4
2017-Oct-18 04:58N 70°21' E 023°23'0 0.0
2017-Oct-18 04:28N 70°21' E 023°23'0 0.0
2017-Oct-18 03:58N 70°21' E 023°23'0 0.0
2017-Oct-18 03:28N 70°21' E 023°23'0 0.0
2017-Oct-18 02:58N 70°21' E 023°23'0 0.0
2017-Oct-18 02:28N 70°21' E 023°23'0 0.0
2017-Oct-18 01:58N 70°21' E 023°23'0 0.0
2017-Oct-18 01:28N 70°21' E 023°23'0 0.0
2017-Oct-18 00:58N 70°21' E 023°23'0 0.0
2017-Oct-18 00:28N 70°21' E 023°23'0 0.0
2017-Oct-17 23:58N 70°21' E 023°23'0 0.0
2017-Oct-17 23:28N 70°21' E 023°23'0 0.0
2017-Oct-17 22:58N 70°21' E 023°23'0 0.0
2017-Oct-17 22:28N 70°21' E 023°23'0 0.0
2017-Oct-17 21:58N 70°21' E 023°23'0 0.0
2017-Oct-17 21:28N 70°21' E 023°23'0 0.0
2017-Oct-17 20:58N 70°21' E 023°23'0 0.0
2017-Oct-17 20:28N 70°21' E 023°23'0 0.0
2017-Oct-17 19:58N 70°21' E 023°23'0 0.0
2017-Oct-17 19:28N 70°21' E 023°23'0 0.0
2017-Oct-17 18:58N 70°21' E 023°23'0 0.0
2017-Oct-17 18:28N 70°21' E 023°23'0 0.0
2017-Oct-17 17:58N 70°21' E 023°23'0 0.0
2017-Oct-17 17:28N 70°21' E 023°23'0 0.0
2017-Oct-17 16:58N 70°21' E 023°23'0 0.0
2017-Oct-17 16:28N 70°21' E 023°23'0 0.0
2017-Oct-17 15:55N 70°21' E 023°23'0 0.0
2017-Oct-17 15:28N 70°21' E 023°23'0 0.0
2017-Oct-17 14:58N 70°21' E 023°23'2 4.0
2017-Oct-17 14:29N 70°22' E 023°28'1 1.4
2017-Oct-17 14:00N 70°22' E 023°29'3 4.4
2017-Oct-17 13:26N 70°21' E 023°23'0 0.0
2017-Oct-17 12:59N 70°21' E 023°23'0 0.4
2017-Oct-17 12:31N 70°20' E 023°23'0 0.3
2017-Oct-17 11:59N 70°20' E 023°24'0 0.3
2017-Oct-17 11:30N 70°21' E 023°24'0 0.3
2017-Oct-17 10:59N 70°21' E 023°23'0 0.2
2017-Oct-17 10:25N 70°21' E 023°24'0 0.0
2017-Oct-17 10:00N 70°21' E 023°24'0 0.2
2017-Oct-17 09:28N 70°21' E 023°23'0 0.0
2017-Oct-17 08:58N 70°21' E 023°23'0 0.3
2017-Oct-17 08:30N 70°20' E 023°24'0 0.1
2017-Oct-17 07:58N 70°20' E 023°24'0 0.3
2017-Oct-17 07:29N 70°21' E 023°23'0 0.2
2017-Oct-17 07:00N 70°21' E 023°23'0 0.1
2017-Oct-17 06:28N 70°20' E 023°23'0 0.2
2017-Oct-17 05:58N 70°20' E 023°23'0 0.0
2017-Oct-17 05:30N 70°21' E 023°23'0 0.3
2017-Oct-17 05:00N 70°21' E 023°24'0 0.0
2017-Oct-17 04:30N 70°21' E 023°24'0 0.0
2017-Oct-17 04:00N 70°21' E 023°24'0 0.0
2017-Oct-17 03:30N 70°21' E 023°24'0 0.0
2017-Oct-17 03:00N 70°21' E 023°24'0 0.0
2017-Oct-17 02:30N 70°21' E 023°24'0 0.0
2017-Oct-17 02:00N 70°21' E 023°24'0 0.0
2017-Oct-17 01:30N 70°21' E 023°24'0 0.0
2017-Oct-17 01:00N 70°21' E 023°24'0 0.0
2017-Oct-17 00:30N 70°21' E 023°24'0 0.0
2017-Oct-17 00:00N 70°21' E 023°24'0 0.0
2017-Oct-16 23:30N 70°21' E 023°24'0 0.0
2017-Oct-16 23:00N 70°21' E 023°24'0 0.0
2017-Oct-16 22:30N 70°21' E 023°24'0 0.0
2017-Oct-16 22:00N 70°21' E 023°24'0 0.0
2017-Oct-16 21:30N 70°21' E 023°24'0 0.0
2017-Oct-16 21:00N 70°21' E 023°24'0 0.0
2017-Oct-16 20:30N 70°21' E 023°24'0 0.0
2017-Oct-16 20:00N 70°21' E 023°24'0 0.0
2017-Oct-16 19:30N 70°21' E 023°24'0 0.0
2017-Oct-16 19:00N 70°21' E 023°24'0 0.0
2017-Oct-16 18:30N 70°21' E 023°24'0 0.0
2017-Oct-16 18:00N 70°21' E 023°24'0 0.0
2017-Oct-16 17:30N 70°21' E 023°24'0 0.0
2017-Oct-16 17:00N 70°21' E 023°24'0 0.0
2017-Oct-16 16:30N 70°21' E 023°24'3 6.8
2017-Oct-16 16:00N 70°22' E 023°32'0 1.0
2017-Oct-16 15:30N 70°23' E 023°33'4 7.2
2017-Oct-16 15:00N 70°21' E 023°24'0 0.5
2017-Oct-16 14:28N 70°21' E 023°23'0 0.0
2017-Oct-16 13:28N 70°21' E 023°23'0 0.0
2017-Oct-16 12:58N 70°21' E 023°23'0 0.0
2017-Oct-16 12:28N 70°21' E 023°23'0 0.0
2017-Oct-16 11:58N 70°21' E 023°23'0 0.0
2017-Oct-16 11:27N 70°21' E 023°23'0 0.0
2017-Oct-16 10:58N 70°21' E 023°23'0 0.0
2017-Oct-16 10:28N 70°21' E 023°23'0 0.0
2017-Oct-16 09:58N 70°21' E 023°23'0 0.0
2017-Oct-16 09:28N 70°21' E 023°23'0 0.0
2017-Oct-16 08:58N 70°21' E 023°23'0 0.0
2017-Oct-16 08:28N 70°21' E 023°23'0 0.0
2017-Oct-16 07:58N 70°21' E 023°23'0 0.0
2017-Oct-16 07:28N 70°21' E 023°23'0 0.0
2017-Oct-16 06:58N 70°21' E 023°23'0 0.0
2017-Oct-16 06:28N 70°21' E 023°23'0 0.0
2017-Oct-16 05:55N 70°21' E 023°23'0 0.0
2017-Oct-16 05:25N 70°21' E 023°23'0 0.0
2017-Oct-16 04:58N 70°21' E 023°23'0 0.0
2017-Oct-16 04:28N 70°21' E 023°23'0 0.0
2017-Oct-16 03:58N 70°21' E 023°23'0 0.0
2017-Oct-16 03:28N 70°21' E 023°23'0 0.0
2017-Oct-16 02:58N 70°21' E 023°23'0 0.0
2017-Oct-16 02:28N 70°21' E 023°23'0 0.0
2017-Oct-16 01:58N 70°21' E 023°23'0 0.0
2017-Oct-16 01:28N 70°21' E 023°23'0 0.0
2017-Oct-16 00:58N 70°21' E 023°23'0 0.0
2017-Oct-16 00:28N 70°21' E 023°23'0 0.0
2017-Oct-15 23:58N 70°21' E 023°23'0 0.0
2017-Oct-15 23:28N 70°21' E 023°23'0 0.0
2017-Oct-15 22:58N 70°21' E 023°23'0 0.0
2017-Oct-15 22:28N 70°21' E 023°23'0 0.0
2017-Oct-15 21:58N 70°21' E 023°23'0 0.0
2017-Oct-15 21:28N 70°21' E 023°23'0 0.0
2017-Oct-15 20:58N 70°21' E 023°23'0 0.0
2017-Oct-15 20:28N 70°21' E 023°23'0 0.0
2017-Oct-15 19:58N 70°21' E 023°23'0 0.0
2017-Oct-15 19:28N 70°21' E 023°23'0 0.0
2017-Oct-15 18:58N 70°21' E 023°23'0 0.0
2017-Oct-15 18:28N 70°21' E 023°23'0 0.0
2017-Oct-15 17:58N 70°21' E 023°23'0 0.0
2017-Oct-15 17:25N 70°21' E 023°23'0 0.0
2017-Oct-15 16:58N 70°21' E 023°23'0 0.0
2017-Oct-15 16:28N 70°21' E 023°23'0 0.0
2017-Oct-15 15:58N 70°21' E 023°23'0 0.0
2017-Oct-15 15:28N 70°21' E 023°23'0 0.2
2017-Oct-15 14:59N 70°21' E 023°23'0 0.2
2017-Oct-15 14:00N 70°20' E 023°24'0 0.2
2017-Oct-15 13:30N 70°21' E 023°23'0 0.2
2017-Oct-15 13:00N 70°21' E 023°23'0 0.0
2017-Oct-15 12:30N 70°21' E 023°23'0 0.0
2017-Oct-15 12:00N 70°21' E 023°23'0 0.0
2017-Oct-15 11:30N 70°21' E 023°23'0 0.0
2017-Oct-15 11:00N 70°21' E 023°23'0 0.0
2017-Oct-15 10:30N 70°21' E 023°23'0 0.0
2017-Oct-15 10:00N 70°21' E 023°23'0 0.0
2017-Oct-15 09:30N 70°21' E 023°23'0 0.0
2017-Oct-15 09:00N 70°21' E 023°23'0 0.0
2017-Oct-15 08:30N 70°21' E 023°23'0 0.0
2017-Oct-15 08:00N 70°21' E 023°23'0 0.0
2017-Oct-15 07:30N 70°21' E 023°23'0 0.0
2017-Oct-15 07:00N 70°21' E 023°23'0 0.0
2017-Oct-15 06:30N 70°21' E 023°23'0 0.0
2017-Oct-15 06:00N 70°21' E 023°23'0 0.0
2017-Oct-15 05:30N 70°21' E 023°23'0 0.0
2017-Oct-15 05:00N 70°21' E 023°23'0 0.0
2017-Oct-15 04:30N 70°21' E 023°23'0 0.0
2017-Oct-15 04:00N 70°21' E 023°23'0 0.0
2017-Oct-15 03:30N 70°21' E 023°23'0 0.0
2017-Oct-15 03:00N 70°21' E 023°23'0 0.0
2017-Oct-15 02:30N 70°21' E 023°23'0 0.0
2017-Oct-15 02:00N 70°21' E 023°23'0 0.0
2017-Oct-15 01:30N 70°21' E 023°23'0 0.0
2017-Oct-15 01:00N 70°21' E 023°23'0 0.0
2017-Oct-15 00:30N 70°21' E 023°23'0 0.0
2017-Oct-15 00:00N 70°21' E 023°23'0 0.0
2017-Oct-14 23:30N 70°21' E 023°23'0 0.0
2017-Oct-14 23:00N 70°21' E 023°23'0 0.0
2017-Oct-14 22:30N 70°21' E 023°23'0 0.0
2017-Oct-14 22:00N 70°21' E 023°23'0 0.0
2017-Oct-14 21:30N 70°21' E 023°23'0 0.0
2017-Oct-14 21:00N 70°21' E 023°23'0 0.0
2017-Oct-14 20:30N 70°21' E 023°23'0 0.0
2017-Oct-14 20:00N 70°21' E 023°23'0 0.0
2017-Oct-14 19:30N 70°21' E 023°23'0 0.0
2017-Oct-14 19:00N 70°21' E 023°23'0 0.0
2017-Oct-14 18:30N 70°21' E 023°23'0 0.0
2017-Oct-14 18:00N 70°21' E 023°23'0 0.0
2017-Oct-14 17:30N 70°21' E 023°23'0 0.0
2017-Oct-14 16:59N 70°21' E 023°23'0 0.0
2017-Oct-14 16:29N 70°21' E 023°23'0 0.0
2017-Oct-14 15:59N 70°21' E 023°23'0 0.0
2017-Oct-14 15:29N 70°21' E 023°23'0 0.0
2017-Oct-14 14:59N 70°21' E 023°23'0 0.0
2017-Oct-14 14:29N 70°21' E 023°23'0 0.0
2017-Oct-14 13:59N 70°21' E 023°23'0 0.0
2017-Oct-14 13:29N 70°21' E 023°23'0 0.0
2017-Oct-14 12:59N 70°21' E 023°23'0 0.0
2017-Oct-14 12:29N 70°21' E 023°23'0 0.0
2017-Oct-14 11:59N 70°21' E 023°23'0 0.0
2017-Oct-14 11:29N 70°21' E 023°23'0 0.0
2017-Oct-14 10:59N 70°21' E 023°23'0 0.0
2017-Oct-14 10:29N 70°21' E 023°23'0 0.0
2017-Oct-14 09:59N 70°21' E 023°23'0 0.0
2017-Oct-14 09:29N 70°21' E 023°23'0 0.0
2017-Oct-14 08:59N 70°21' E 023°23'0 0.0
2017-Oct-14 08:29N 70°21' E 023°23'0 0.0
2017-Oct-14 07:59N 70°21' E 023°23'0 0.0
2017-Oct-14 07:29N 70°21' E 023°23'0 0.0
2017-Oct-14 06:59N 70°21' E 023°23'0 0.0
2017-Oct-14 06:29N 70°21' E 023°23'0 0.0
2017-Oct-14 05:59N 70°21' E 023°23'0 0.0
2017-Oct-14 05:29N 70°21' E 023°23'0 0.0
2017-Oct-14 04:59N 70°21' E 023°23'0 0.0
2017-Oct-14 04:29N 70°21' E 023°23'0 0.0
2017-Oct-14 03:59N 70°21' E 023°23'0 0.0
2017-Oct-14 03:29N 70°21' E 023°23'0 0.0
2017-Oct-14 02:59N 70°21' E 023°23'0 0.0
2017-Oct-14 02:29N 70°21' E 023°23'0 0.0
2017-Oct-14 01:59N 70°21' E 023°23'0 0.0
2017-Oct-14 01:29N 70°21' E 023°23'0 0.0
2017-Oct-14 00:59N 70°21' E 023°23'0 0.0
2017-Oct-14 00:29N 70°21' E 023°23'0 0.0
2017-Oct-13 23:59N 70°21' E 023°23'0 0.0
2017-Oct-13 23:29N 70°21' E 023°23'0 0.0
2017-Oct-13 22:59N 70°21' E 023°23'0 0.0
2017-Oct-13 22:29N 70°21' E 023°23'0 0.0
2017-Oct-13 21:59N 70°21' E 023°23'0 0.0
2017-Oct-13 21:29N 70°21' E 023°23'0 0.0
2017-Oct-13 20:59N 70°21' E 023°23'0 0.0
2017-Oct-13 20:29N 70°21' E 023°23'0 0.0
2017-Oct-13 19:59N 70°21' E 023°23'0 0.0
2017-Oct-13 19:29N 70°21' E 023°23'0 0.0
2017-Oct-13 18:59N 70°21' E 023°23'0 0.0
2017-Oct-13 18:29N 70°21' E 023°23'0 0.0
2017-Oct-13 17:59N 70°21' E 023°23'0 0.0
2017-Oct-13 17:29N 70°21' E 023°23'0 0.0
2017-Oct-13 16:59N 70°21' E 023°23'0 0.0
2017-Oct-13 16:29N 70°21' E 023°23'0 0.0
2017-Oct-13 15:59N 70°21' E 023°23'0 0.0
2017-Oct-13 15:29N 70°21' E 023°23'0 0.0
2017-Oct-13 14:59N 70°21' E 023°23'0 0.0
2017-Oct-13 14:29N 70°21' E 023°23'0 0.0
2017-Oct-13 13:59N 70°21' E 023°23'0 0.0
2017-Oct-13 13:28N 70°21' E 023°23'0 0.0
2017-Oct-13 13:00N 70°21' E 023°24'0 0.0
2017-Oct-13 12:30N 70°21' E 023°24'0 0.0
2017-Oct-13 12:00N 70°21' E 023°24'0 0.0
2017-Oct-13 11:30N 70°21' E 023°24'0 0.0
2017-Oct-13 11:00N 70°21' E 023°24'0 0.0
2017-Oct-13 10:30N 70°21' E 023°24'0 0.0
2017-Oct-13 10:00N 70°21' E 023°24'0 0.0
2017-Oct-13 09:30N 70°21' E 023°24'0 0.0
2017-Oct-13 09:00N 70°21' E 023°24'0 0.0
2017-Oct-13 08:30N 70°21' E 023°24'0 0.0
2017-Oct-12 16:24N 70°21' E 023°23'0 0.0
2017-Oct-12 15:59N 70°21' E 023°23'0 0.0
2017-Oct-12 15:29N 70°21' E 023°23'0 0.0
2017-Oct-12 14:59N 70°21' E 023°23'0 0.0
2017-Oct-12 14:29N 70°21' E 023°23'0 0.0
2017-Oct-12 13:59N 70°21' E 023°23'0 0.0
2017-Oct-12 13:29N 70°21' E 023°23'0 0.0
2017-Oct-12 12:59N 70°21' E 023°23'0 0.0
2017-Oct-12 12:29N 70°21' E 023°23'0 0.0
2017-Oct-12 11:59N 70°21' E 023°23'0 0.0
2017-Oct-12 11:29N 70°21' E 023°23'0 0.0
2017-Oct-12 10:59N 70°21' E 023°23'0 0.0
2017-Oct-12 10:29N 70°21' E 023°23'0 0.0
2017-Oct-12 09:58N 70°21' E 023°23'0 0.2
2017-Oct-12 09:29N 70°21' E 023°23'0 0.1
2017-Oct-12 08:59N 70°21' E 023°23'0 0.2
2017-Oct-12 08:29N 70°20' E 023°24'0 0.2
2017-Oct-12 08:00N 70°20' E 023°24'0 0.3
2017-Oct-12 07:29N 70°21' E 023°24'0 0.0
2017-Oct-12 06:59N 70°21' E 023°24'0 0.0
2017-Oct-12 06:29N 70°21' E 023°24'0 0.0
2017-Oct-12 05:59N 70°21' E 023°24'0 0.0
2017-Oct-12 05:29N 70°21' E 023°24'0 0.0
2017-Oct-12 04:59N 70°21' E 023°24'0 0.0
2017-Oct-12 04:29N 70°21' E 023°24'0 0.0
2017-Oct-12 03:59N 70°21' E 023°24'0 0.0
2017-Oct-12 03:29N 70°21' E 023°24'0 0.0
2017-Oct-12 02:59N 70°21' E 023°24'0 0.0
2017-Oct-12 02:29N 70°21' E 023°24'0 0.0
2017-Oct-12 01:59N 70°21' E 023°24'0 0.0
2017-Oct-12 01:29N 70°21' E 023°24'0 0.0
2017-Oct-12 00:59N 70°21' E 023°24'0 0.0
2017-Oct-12 00:29N 70°21' E 023°24'0 0.0
2017-Oct-11 23:59N 70°21' E 023°24'0 0.0
2017-Oct-11 23:29N 70°21' E 023°24'0 0.0
2017-Oct-11 22:59N 70°21' E 023°24'0 0.0
2017-Oct-11 22:29N 70°21' E 023°24'0 0.0
2017-Oct-11 21:59N 70°21' E 023°24'0 0.0
2017-Oct-11 21:29N 70°21' E 023°24'0 0.0
2017-Oct-11 20:59N 70°21' E 023°24'0 0.0
2017-Oct-11 20:29N 70°21' E 023°24'0 0.0
2017-Oct-11 19:59N 70°21' E 023°24'0 0.0
2017-Oct-11 19:29N 70°21' E 023°24'0 0.0
2017-Oct-11 18:59N 70°21' E 023°24'0 0.0
2017-Oct-11 18:29N 70°21' E 023°24'0 0.0
2017-Oct-11 17:59N 70°21' E 023°24'0 0.0
2017-Oct-11 17:29N 70°21' E 023°24'0 0.0
2017-Oct-11 16:59N 70°21' E 023°24'0 0.0
2017-Oct-11 00:00N 70°21' E 023°23'0 0.0
2017-Oct-10 23:30N 70°21' E 023°23'0 0.0
2017-Oct-10 23:00N 70°21' E 023°23'0 0.0
2017-Oct-10 22:30N 70°21' E 023°23'0 0.0
2017-Oct-10 22:00N 70°21' E 023°23'0 0.0
2017-Oct-10 21:30N 70°21' E 023°23'0 0.0
2017-Oct-10 21:00N 70°21' E 023°23'0 0.0
2017-Oct-10 20:30N 70°21' E 023°23'0 0.0
2017-Oct-10 20:00N 70°21' E 023°23'0 0.0
2017-Oct-10 19:30N 70°21' E 023°23'0 0.0
2017-Oct-10 19:00N 70°21' E 023°23'0 0.0
2017-Oct-10 18:30N 70°21' E 023°23'0 0.0
2017-Oct-10 18:00N 70°21' E 023°23'0 0.0
2017-Oct-10 17:30N 70°21' E 023°23'0 0.0
2017-Oct-10 17:00N 70°21' E 023°23'0 0.0
2017-Oct-10 16:30N 70°21' E 023°23'0 0.0
2017-Oct-10 16:00N 70°21' E 023°23'0 0.0
2017-Oct-10 15:30N 70°21' E 023°23'0 0.0
2017-Oct-10 15:00N 70°21' E 023°23'0 0.0
2017-Oct-10 14:00N 70°21' E 023°23'0 0.0
2017-Oct-10 13:30N 70°21' E 023°23'0 0.0
2017-Oct-10 13:00N 70°21' E 023°23'0 0.0
2017-Oct-10 12:30N 70°21' E 023°23'0 0.3
2017-Oct-10 12:00N 70°20' E 023°24'1 1.5
2017-Oct-10 11:29N 70°21' E 023°26'2 5.0
2017-Oct-10 10:59N 70°23' E 023°29'0 0.0
2017-Oct-10 10:30N 70°23' E 023°29'0 0.0
2017-Oct-10 10:00N 70°23' E 023°29'0 0.0
2017-Oct-10 09:30N 70°23' E 023°29'0 0.0
2017-Oct-10 09:00N 70°23' E 023°29'1 1.1
2017-Oct-10 08:29N 70°23' E 023°29'3 5.1
2017-Oct-10 07:58N 70°21' E 023°23'0 0.0
2017-Oct-10 07:28N 70°21' E 023°23'0 0.0
2017-Oct-10 06:58N 70°21' E 023°23'0 0.0
2017-Oct-10 06:28N 70°21' E 023°23'0 0.0
2017-Oct-10 05:58N 70°21' E 023°23'0 0.0
2017-Oct-10 05:28N 70°21' E 023°23'0 0.0
2017-Oct-10 04:58N 70°21' E 023°23'0 0.0
2017-Oct-10 04:28N 70°21' E 023°23'0 0.0
2017-Oct-10 03:58N 70°21' E 023°23'0 0.0
2017-Oct-10 03:28N 70°21' E 023°23'0 0.0
2017-Oct-10 02:58N 70°21' E 023°23'0 0.0
2017-Oct-10 02:28N 70°21' E 023°23'0 0.0
2017-Oct-10 01:58N 70°21' E 023°23'0 0.0
2017-Oct-10 01:28N 70°21' E 023°23'0 0.0
2017-Oct-10 00:58N 70°21' E 023°23'0 0.0
2017-Oct-10 00:28N 70°21' E 023°23'0 0.0
2017-Oct-09 23:58N 70°21' E 023°23'0 0.0
2017-Oct-09 23:28N 70°21' E 023°23'0 0.0
2017-Oct-09 22:58N 70°21' E 023°23'0 0.0
2017-Oct-09 22:28N 70°21' E 023°23'0 0.0
2017-Oct-09 21:58N 70°21' E 023°23'0 0.0
2017-Oct-09 21:28N 70°21' E 023°23'0 0.0
2017-Oct-09 20:58N 70°21' E 023°23'0 0.0
2017-Oct-09 20:28N 70°21' E 023°23'0 0.0
2017-Oct-09 19:58N 70°21' E 023°23'0 0.0
2017-Oct-09 19:28N 70°21' E 023°23'0 0.0
2017-Oct-09 18:58N 70°21' E 023°23'0 0.0
2017-Oct-09 18:28N 70°21' E 023°23'0 0.0
2017-Oct-09 17:58N 70°21' E 023°23'2 4.5
2017-Oct-09 17:30N 70°22' E 023°29'2 4.5
2017-Oct-09 17:00N 70°23' E 023°35'0 0.0
2017-Oct-09 16:30N 70°23' E 023°35'4 7.8
2017-Oct-09 15:59N 70°21' E 023°25'0 0.7
2017-Oct-09 15:29N 70°21' E 023°23'0 0.0
2017-Oct-09 14:59N 70°21' E 023°23'  

Dump ship's entire track history